logo
Search for airport 
image banner adimage banner adimage banner ad
image banner ad

ETOU - Wiesbaden Aaf

Located in Wiesbaden, Germany

ICAO - ETOU, IATA - WIE

Data provided by Airmate  

General information

Coordinates: N50°2'59" E8°19'32"
Elevation is 460 feet MSL.
Magnetic variation is 3.24° East
View others Airports in Hesse

Operational data

Special qualification required
Current time UTC:
Current local time:
Weather
METAR: ETOU 281210Z AUTO 18003KT 8000 HZ CLR 09/02 A3020 RMK AO2 SLP232 $
TAF: TAF AMD ETOU 280735Z 2807/2911 VRB06KT 8000 BR FEW020 QNH3013INS BECMG 2808/2809 VRB06KT 9999 NSW BKN015 QNH3019INS BECMG 2811/2812 VRB06KT 9999 SCT020 QNH3014INS BECMG 2822/2823 VRB06KT 8000 BR SCT010 BKN012 QNH3005INS BECMG 2904/2905 VRB06KT 6000 BR SCT005 BKN009 QNH2997INS BECMG 2910/2911 VRB06KT 9999 NSW SCT012 BKN015 QNH2996INS TX08/2814Z TN02/2807Z
View NOTAMs / SUP AIP / TFR affecting this airport [VIEW]
Communications frequencies: [VIEW]

Runways:

RWY identifierQFULength (ft)Width (ft)SurfaceLDA (ft)
0773°7069120ASPH7069
25253°7069120ASPH6934

Airport contact information

Address: Wiesbaden Germany

Satellite view of ETOU